Hickory Corners, Michigan
Current Conditions -  °F | °C
As of 3:53 AM on Thursday 27 Nov 2014 (Local Time) from KBTL Reporting Station
Overcast Overcast  
Wind Chill: 24°   Ceiling: 3900
Heat Index: 29°   Visibility: 10mi
Dew Point: 20°   Wind: 5mph
Humidity: 69%   Direction: 320°NW
Pressure: 30.14"   Gusts: NA
Location:  42.44°N, 85.38°W
Report Text: KBTL 270853Z 32004KT 10SM OVC039 M02/M07 A3014 RMK AO2 SLP217 T10171067 53005 $
Loading
Personal Weather Stations






























Interactive Weather Map New forecast layout! Learn more

10-Day Weather Forecast

Advertisements
Track Severe Weather on mobile